createdAt,value
2023-04-27T00:01:01.064Z,36.88
2023-04-27T00:03:28.398Z,36.74
2023-04-27T00:05:55.323Z,36.86
2023-04-27T00:08:22.030Z,36.93
2023-04-27T00:10:48.572Z,36.73
2023-04-27T00:13:15.013Z,36.80
2023-04-27T00:15:41.694Z,36.68
2023-04-27T00:18:08.350Z,36.94
2023-04-27T00:20:34.898Z,36.77
2023-04-27T00:23:01.332Z,36.73
2023-04-27T00:25:27.925Z,36.37
2023-04-27T00:27:54.378Z,36.87
2023-04-27T00:30:21.085Z,36.81
2023-04-27T00:32:47.572Z,36.73
2023-04-27T00:35:16.364Z,36.63
2023-04-27T00:37:42.907Z,36.88
2023-04-27T00:40:09.826Z,36.85
2023-04-27T00:42:36.789Z,36.63
2023-04-27T00:45:05.932Z,36.86
2023-04-27T00:47:33.336Z,36.94
2023-04-27T00:49:59.911Z,36.85
2023-04-27T00:52:26.674Z,37.05
2023-04-27T00:54:53.227Z,36.78
2023-04-27T00:57:20.800Z,36.93
2023-04-27T00:59:47.467Z,36.98
2023-04-27T01:02:14.119Z,36.94
2023-04-27T01:04:41.495Z,37.07
2023-04-27T01:07:08.158Z,36.72
2023-04-27T01:09:34.734Z,36.82
2023-04-27T01:12:01.627Z,36.58
2023-04-27T01:14:28.151Z,37.00
2023-04-27T01:16:54.731Z,36.85
2023-04-27T01:19:21.235Z,36.73
2023-04-27T01:21:50.145Z,36.97
2023-04-27T01:24:16.888Z,36.67
2023-04-27T01:26:43.449Z,36.69
2023-04-27T01:29:10.150Z,36.85
2023-04-27T01:31:36.812Z,36.94
2023-04-27T01:34:03.761Z,36.91
2023-04-27T01:36:31.781Z,36.76
2023-04-27T01:38:58.250Z,36.72
2023-04-27T01:41:24.863Z,36.87
2023-04-27T01:43:51.309Z,36.49
2023-04-27T01:46:17.839Z,36.82
2023-04-27T01:48:44.371Z,36.75
2023-04-27T01:51:11.082Z,36.56
2023-04-27T01:53:37.642Z,36.76
2023-04-27T01:56:04.476Z,37.01
2023-04-27T01:58:32.957Z,36.74
2023-04-27T02:00:59.511Z,36.71
2023-04-27T02:03:26.219Z,36.93
2023-04-27T02:05:52.941Z,36.67
2023-04-27T02:08:19.577Z,36.76
2023-04-27T02:10:46.279Z,36.79
2023-04-27T02:13:12.857Z,36.63
2023-04-27T02:15:39.400Z,36.88
2023-04-27T02:18:06.140Z,36.62
2023-04-27T02:20:33.222Z,36.42
2023-04-27T02:23:02.213Z,36.74
2023-04-27T02:25:28.870Z,37.01
2023-04-27T02:27:55.665Z,36.39
2023-04-27T02:30:22.815Z,36.65
2023-04-27T02:32:50.033Z,36.96
2023-04-27T02:35:16.764Z,36.99
2023-04-27T02:37:43.328Z,36.81
2023-04-27T02:40:10.330Z,36.93
2023-04-27T02:42:38.817Z,36.90
2023-04-27T02:45:08.580Z,36.54
2023-04-27T02:47:36.402Z,36.81
2023-04-27T02:50:03.166Z,36.62
2023-04-27T02:52:33.833Z,36.87
2023-04-27T02:55:00.377Z,36.47
2023-04-27T02:57:27.844Z,36.70
2023-04-27T02:59:54.327Z,36.96
2023-04-27T03:02:20.919Z,36.61
2023-04-27T03:04:47.627Z,36.62
2023-04-27T03:07:14.142Z,36.57
2023-04-27T03:09:40.686Z,36.94
2023-04-27T03:12:07.285Z,36.62
2023-04-27T03:14:33.798Z,36.88
2023-04-27T03:17:00.846Z,36.45
2023-04-27T03:19:27.456Z,37.00
2023-04-27T03:21:54.075Z,36.78
2023-04-27T03:24:21.754Z,37.08
2023-04-27T03:26:49.482Z,36.54
2023-04-27T03:29:16.228Z,36.84
2023-04-27T03:31:42.880Z,36.68
2023-04-27T03:34:09.428Z,36.79
2023-04-27T03:36:38.630Z,36.68
2023-04-27T03:39:05.139Z,36.79
2023-04-27T03:41:31.591Z,36.70
2023-04-27T03:43:58.110Z,37.24
2023-04-27T03:46:24.698Z,37.02
2023-04-27T03:48:51.226Z,36.60
2023-04-27T03:51:18.325Z,36.63
2023-04-27T03:53:46.437Z,36.64
2023-04-27T03:56:13.503Z,36.89
2023-04-27T03:58:40.019Z,36.65
2023-04-27T04:01:16.684Z,36.89
2023-04-27T04:03:43.619Z,36.73
2023-04-27T04:06:12.036Z,36.78
2023-04-27T04:08:39.280Z,36.93
2023-04-27T04:11:05.986Z,36.60
2023-04-27T04:13:36.003Z,36.72
2023-04-27T04:16:03.899Z,36.94
2023-04-27T04:18:30.594Z,36.69
2023-04-27T04:20:57.832Z,36.60
2023-04-27T04:23:24.572Z,36.64
2023-04-27T04:25:51.179Z,36.96
2023-04-27T04:28:18.199Z,36.67
2023-04-27T04:30:45.137Z,36.65
2023-04-27T04:33:11.923Z,36.90
2023-04-27T04:35:39.301Z,36.65
2023-04-27T04:38:06.008Z,36.56
2023-04-27T04:40:32.656Z,36.95
2023-04-27T04:42:59.096Z,36.48
2023-04-27T04:45:26.018Z,37.02
2023-04-27T04:47:54.318Z,36.51
2023-04-27T04:50:21.291Z,36.67
2023-04-27T04:52:47.753Z,36.54
2023-04-27T04:55:15.055Z,37.11
2023-04-27T04:57:41.556Z,36.96
2023-04-27T05:00:12.766Z,36.56
2023-04-27T05:02:42.863Z,36.92
2023-04-27T05:05:09.938Z,36.89
2023-04-27T05:07:36.505Z,36.83
2023-04-27T05:10:03.495Z,36.69
2023-04-27T05:12:30.126Z,36.74
2023-04-27T05:14:56.753Z,36.61
2023-04-27T05:17:23.289Z,36.81
2023-04-27T05:19:49.859Z,36.77
2023-04-27T05:22:16.357Z,36.65
2023-04-27T05:24:43.038Z,36.69
2023-04-27T05:27:09.514Z,36.82
2023-04-27T05:29:36.064Z,36.82
2023-04-27T05:32:03.209Z,36.64
2023-04-27T05:34:29.825Z,36.91
2023-04-27T05:36:56.275Z,36.64
2023-04-27T05:39:22.721Z,36.64
2023-04-27T05:41:49.232Z,36.97
2023-04-27T05:44:15.749Z,36.90
2023-04-27T05:46:42.220Z,37.05
2023-04-27T05:49:08.675Z,36.78
2023-04-27T05:51:35.387Z,36.82
2023-04-27T05:54:02.075Z,36.77
2023-04-27T05:56:28.786Z,36.94
2023-04-27T05:58:55.336Z,36.84
2023-04-27T06:01:21.980Z,36.72
2023-04-27T06:03:48.675Z,36.80
2023-04-27T06:06:15.298Z,36.95
2023-04-27T06:08:42.116Z,36.67
2023-04-27T06:11:08.618Z,36.84
2023-04-27T06:13:35.105Z,36.66
2023-04-27T06:16:01.914Z,36.90
2023-04-27T06:18:28.564Z,36.69
2023-04-27T06:21:00.448Z,36.93
2023-04-27T06:23:27.192Z,36.49
2023-04-27T06:25:53.658Z,36.74
2023-04-27T06:28:20.596Z,36.46
2023-04-27T06:30:47.317Z,36.78
2023-04-27T06:33:13.778Z,36.55
2023-04-27T06:35:41.236Z,36.91
2023-04-27T06:38:08.162Z,36.72
2023-04-27T06:40:37.391Z,36.75
2023-04-27T06:43:03.965Z,36.81
2023-04-27T06:45:30.581Z,36.78
2023-04-27T06:47:57.114Z,37.01
2023-04-27T06:50:23.683Z,36.82
2023-04-27T06:52:50.169Z,36.78
2023-04-27T06:55:16.620Z,36.70
2023-04-27T06:57:43.208Z,36.88
2023-04-27T07:00:11.645Z,37.03
2023-04-27T07:02:38.155Z,36.64
2023-04-27T07:05:04.914Z,36.87
2023-04-27T07:07:31.450Z,36.74
2023-04-27T07:09:58.017Z,36.91
2023-04-27T07:12:24.820Z,36.92
2023-04-27T07:14:55.315Z,36.71
2023-04-27T07:17:22.049Z,36.91
2023-04-27T07:19:48.596Z,36.72
2023-04-27T07:22:16.068Z,36.81
2023-04-27T07:24:42.622Z,36.87
2023-04-27T07:27:10.199Z,36.75
2023-04-27T07:29:37.867Z,36.93
2023-04-27T07:32:08.821Z,36.72
2023-04-27T07:34:48.913Z,36.91
2023-04-27T07:37:19.761Z,36.60
2023-04-27T07:39:46.770Z,36.49
2023-04-27T07:42:13.397Z,36.66
2023-04-27T07:44:40.798Z,36.78
2023-04-27T07:47:07.592Z,36.73
2023-04-27T07:49:35.481Z,36.82
2023-04-27T07:52:02.033Z,36.83
2023-04-27T07:54:28.611Z,36.58
2023-04-27T07:56:55.286Z,36.65
2023-04-27T07:59:21.849Z,36.93
2023-04-27T08:01:48.429Z,36.77
2023-04-27T08:04:16.219Z,36.94
2023-04-27T08:06:43.707Z,36.50
2023-04-27T08:09:11.302Z,36.79
2023-04-27T08:11:38.134Z,36.50
2023-04-27T08:14:04.645Z,36.89
2023-04-27T08:16:31.297Z,36.91
2023-04-27T08:18:59.253Z,36.75
2023-04-27T08:21:28.548Z,36.84
2023-04-27T08:23:55.181Z,36.92
2023-04-27T08:26:23.417Z,36.58
2023-04-27T08:28:50.998Z,36.61
2023-04-27T08:31:17.569Z,36.36
2023-04-27T08:33:44.119Z,36.64
2023-04-27T08:36:10.898Z,36.82
2023-04-27T08:38:37.453Z,36.17
2023-04-27T08:41:14.497Z,36.85
2023-04-27T08:43:49.739Z,36.53
2023-04-27T08:46:21.403Z,36.84
2023-04-27T08:48:51.627Z,36.45
2023-04-27T08:51:18.744Z,36.53
2023-04-27T08:54:03.198Z,36.63
2023-04-27T08:56:30.341Z,36.57
2023-04-27T08:58:58.303Z,36.45
2023-04-27T09:01:26.161Z,36.75
2023-04-27T09:03:57.630Z,36.39
2023-04-27T09:06:32.659Z,36.47
2023-04-27T09:08:59.661Z,36.69
2023-04-27T09:11:31.311Z,36.58
2023-04-27T09:14:00.206Z,36.37
2023-04-27T09:16:29.272Z,36.61
2023-04-27T09:18:57.608Z,36.36
2023-04-27T09:21:25.677Z,36.62
2023-04-27T09:23:52.674Z,36.29
2023-04-27T09:26:21.796Z,36.57
2023-04-27T09:28:54.108Z,36.72
2023-04-27T09:31:23.397Z,36.45
2023-04-27T09:33:55.902Z,36.67
2023-04-27T09:36:23.199Z,36.60
2023-04-27T09:38:51.502Z,36.74
2023-04-27T09:41:18.740Z,36.33
2023-04-27T09:43:46.263Z,36.42
2023-04-27T09:46:14.265Z,36.57
2023-04-27T09:48:41.634Z,36.38
2023-04-27T09:51:08.977Z,36.30
2023-04-27T09:53:40.847Z,36.58
2023-04-27T09:56:48.620Z,36.63
2023-04-27T09:59:55.478Z,36.39
2023-04-27T10:02:25.704Z,36.45
2023-04-27T10:05:36.045Z,36.57
2023-04-27T10:08:04.952Z,36.65
2023-04-27T10:10:42.333Z,36.55
2023-04-27T10:13:08.824Z,36.40
2023-04-27T10:15:40.017Z,36.38
2023-04-27T10:18:07.232Z,36.51
2023-04-27T10:20:37.775Z,36.14
2023-04-27T10:23:04.803Z,36.16
2023-04-27T10:25:42.762Z,36.47
2023-04-27T10:28:16.301Z,36.28
2023-04-27T10:30:49.271Z,36.58
2023-04-27T10:33:18.061Z,36.56
2023-04-27T10:35:56.047Z,36.58
2023-04-27T10:38:29.089Z,36.50
2023-04-27T10:40:57.216Z,36.31
2023-04-27T10:43:28.680Z,36.44
2023-04-27T10:45:55.870Z,36.48
2023-04-27T10:48:22.439Z,36.31
2023-04-27T10:50:51.978Z,36.50
2023-04-27T10:53:24.821Z,36.48
2023-04-27T10:55:57.902Z,36.25
2023-04-27T10:58:29.872Z,36.25
2023-04-27T11:01:01.687Z,36.37
2023-04-27T11:03:28.280Z,36.55
2023-04-27T11:06:05.619Z,36.47
2023-04-27T11:08:43.833Z,36.49
2023-04-27T11:11:28.474Z,36.56
2023-04-27T11:13:56.009Z,36.62
2023-04-27T11:16:23.157Z,36.62
2023-04-27T11:18:54.758Z,36.36
2023-04-27T11:21:22.236Z,36.45
2023-04-27T11:23:49.031Z,36.32
2023-04-27T11:26:17.758Z,36.46
2023-04-27T11:28:56.875Z,36.42
2023-04-27T11:31:23.516Z,36.56
2023-04-27T11:33:51.003Z,36.49
2023-04-27T11:36:19.164Z,36.24
2023-04-27T11:38:46.132Z,36.16
2023-04-27T11:41:13.443Z,36.18
2023-04-27T11:43:47.716Z,36.43
2023-04-27T11:46:14.437Z,36.17
2023-04-27T11:48:41.348Z,36.13
2023-04-27T11:51:10.971Z,36.24
2023-04-27T11:53:39.901Z,36.50
2023-04-27T11:56:10.758Z,36.30
2023-04-27T11:58:38.955Z,36.53
2023-04-27T12:01:06.396Z,36.06
2023-04-27T12:03:33.215Z,36.37
2023-04-27T12:06:11.739Z,36.47
2023-04-27T12:08:46.537Z,36.67
2023-04-27T12:11:13.024Z,36.12
2023-04-27T12:13:39.565Z,36.47
2023-04-27T12:16:06.942Z,36.40
2023-04-27T12:18:33.604Z,36.18
2023-04-27T12:21:03.032Z,36.46
2023-04-27T12:23:29.853Z,36.22
2023-04-27T12:25:56.583Z,36.33
2023-04-27T12:28:23.439Z,36.28
2023-04-27T12:30:50.359Z,36.65
2023-04-27T12:33:17.635Z,36.43
2023-04-27T12:36:04.608Z,36.46
2023-04-27T12:38:31.242Z,36.08
2023-04-27T12:41:01.802Z,36.25
2023-04-27T12:43:28.271Z,36.22
2023-04-27T12:45:58.862Z,36.08
2023-04-27T12:48:26.379Z,36.55
2023-04-27T12:50:52.938Z,36.21
2023-04-27T12:53:24.208Z,36.53
2023-04-27T12:55:51.260Z,36.11
2023-04-27T12:58:17.760Z,36.45
2023-04-27T13:00:44.253Z,36.34
2023-04-27T13:03:11.197Z,36.10
2023-04-27T13:05:37.776Z,36.23
2023-04-27T13:08:05.570Z,36.40
2023-04-27T13:10:32.277Z,36.12
2023-04-27T13:12:59.655Z,36.33
2023-04-27T13:15:26.280Z,36.02
2023-04-27T13:17:54.333Z,36.12
2023-04-27T13:20:21.121Z,36.07
2023-04-27T13:22:48.196Z,36.18
2023-04-27T13:25:16.536Z,36.34
2023-04-27T13:27:43.072Z,36.02
2023-04-27T13:30:10.093Z,35.99
2023-04-27T13:32:36.737Z,36.45
2023-04-27T13:35:03.917Z,36.30
2023-04-27T13:37:30.437Z,36.42
2023-04-27T13:39:56.908Z,36.24
2023-04-27T13:42:29.234Z,36.14
2023-04-27T13:44:56.905Z,36.20
2023-04-27T13:47:23.450Z,36.25
2023-04-27T13:49:49.970Z,36.15
2023-04-27T13:52:16.468Z,36.46
2023-04-27T13:54:43.086Z,36.37
2023-04-27T13:57:09.534Z,36.39
2023-04-27T13:59:36.001Z,36.31
2023-04-27T14:02:03.321Z,36.29
2023-04-27T14:04:29.966Z,36.26
2023-04-27T14:06:56.615Z,36.30
2023-04-27T14:09:24.193Z,36.32
2023-04-27T14:11:56.845Z,36.22
2023-04-27T14:14:24.157Z,36.15
2023-04-27T14:16:53.610Z,36.23
2023-04-27T14:19:22.907Z,36.28
2023-04-27T14:21:50.123Z,35.91
2023-04-27T14:24:16.687Z,36.00
2023-04-27T14:26:44.259Z,36.06
2023-04-27T14:29:11.599Z,36.36
2023-04-27T14:31:39.305Z,36.46
2023-04-27T14:34:06.578Z,36.08
2023-04-27T14:36:33.457Z,35.88
2023-04-27T14:39:01.142Z,36.02
2023-04-27T14:41:28.369Z,36.11
2023-04-27T14:43:55.315Z,36.02
2023-04-27T14:46:22.138Z,36.13
2023-04-27T14:48:49.124Z,35.92
2023-04-27T14:51:16.321Z,35.95
2023-04-27T14:53:43.984Z,36.07
2023-04-27T14:56:11.201Z,36.17
2023-04-27T14:58:39.152Z,35.73
2023-04-27T15:01:07.931Z,36.04
2023-04-27T15:03:34.810Z,36.27
2023-04-27T15:06:01.946Z,35.96
2023-04-27T15:08:29.704Z,35.80
2023-04-27T15:10:59.731Z,35.91
2023-04-27T15:13:27.313Z,35.73
2023-04-27T15:15:58.569Z,36.00
2023-04-27T15:18:25.673Z,36.24
2023-04-27T15:20:55.863Z,36.21
2023-04-27T15:23:23.389Z,36.00
2023-04-27T15:25:51.794Z,35.93
2023-04-27T15:28:18.775Z,36.18
2023-04-27T15:30:45.489Z,36.15
2023-04-27T15:33:13.101Z,36.08
2023-04-27T15:35:40.486Z,35.84
2023-04-27T15:38:09.097Z,35.91
2023-04-27T15:40:36.449Z,35.92
2023-04-27T15:43:03.226Z,36.00
2023-04-27T15:45:29.801Z,36.00
2023-04-27T15:47:56.350Z,35.78
2023-04-27T15:50:23.016Z,35.81
2023-04-27T15:52:49.569Z,36.11
2023-04-27T15:55:16.575Z,35.97
2023-04-27T15:57:43.103Z,35.90
2023-04-27T16:00:10.457Z,35.97
2023-04-27T16:02:38.200Z,35.89
2023-04-27T16:05:06.389Z,35.65
2023-04-27T16:07:34.185Z,35.70
2023-04-27T16:10:00.791Z,35.78
2023-04-27T16:12:28.199Z,35.72
2023-04-27T16:14:57.339Z,36.13
2023-04-27T16:17:27.837Z,35.75
2023-04-27T16:19:54.711Z,35.91
2023-04-27T16:22:22.240Z,36.07
2023-04-27T16:24:48.905Z,35.79
2023-04-27T16:27:17.224Z,36.08
2023-04-27T16:29:43.818Z,35.69
2023-04-27T16:32:11.075Z,35.96
2023-04-27T16:34:38.149Z,35.76
2023-04-27T16:37:04.691Z,35.90
2023-04-27T16:39:31.200Z,35.76
2023-04-27T16:41:57.737Z,36.07
2023-04-27T16:44:24.219Z,35.89
2023-04-27T16:46:52.020Z,35.77
2023-04-27T16:49:18.495Z,35.67
2023-04-27T16:51:45.038Z,35.93
2023-04-27T16:54:12.688Z,36.03
2023-04-27T16:56:39.175Z,36.02
2023-04-27T16:59:05.976Z,35.90
2023-04-27T17:01:32.585Z,35.73
2023-04-27T17:04:02.297Z,35.89
2023-04-27T17:06:29.867Z,35.66
2023-04-27T17:08:57.520Z,35.73
2023-04-27T17:11:24.558Z,35.64
2023-04-27T17:13:51.066Z,35.84
2023-04-27T17:16:18.561Z,35.78
2023-04-27T17:18:48.990Z,35.91
2023-04-27T17:21:17.105Z,36.04
2023-04-27T17:23:46.436Z,35.88
2023-04-27T17:26:15.772Z,35.73
2023-04-27T17:28:42.255Z,35.95
2023-04-27T17:31:08.871Z,35.74
2023-04-27T17:33:36.010Z,35.77
2023-04-27T17:36:02.467Z,35.65
2023-04-27T17:38:28.953Z,35.63
2023-04-27T17:40:55.446Z,35.90
2023-04-27T17:43:21.897Z,35.60
2023-04-27T17:45:48.375Z,35.70
2023-04-27T17:48:14.922Z,35.57
2023-04-27T17:50:41.552Z,35.90
2023-04-27T17:53:08.015Z,36.12
2023-04-27T17:55:34.548Z,35.96
2023-04-27T17:58:03.850Z,35.89
2023-04-27T18:00:30.768Z,35.97
2023-04-27T18:02:57.452Z,35.78
2023-04-27T18:05:24.136Z,35.71
2023-04-27T18:07:51.514Z,35.85
2023-04-27T18:10:18.060Z,35.73
2023-04-27T18:17:38.227Z,35.96
2023-04-27T18:20:09.514Z,35.79
2023-04-27T18:22:39.806Z,35.92
2023-04-27T18:25:07.142Z,36.03
2023-04-27T18:27:33.564Z,36.14
2023-04-27T18:30:00.041Z,35.96
2023-04-27T18:32:26.621Z,35.81
2023-04-27T18:34:53.914Z,36.17
2023-04-27T18:37:20.571Z,36.07
2023-04-27T18:39:47.087Z,35.95
2023-04-27T18:42:13.593Z,35.89
2023-04-27T18:44:40.255Z,35.80
2023-04-27T18:47:07.882Z,36.13
2023-04-27T18:49:34.369Z,35.97
2023-04-27T18:52:00.877Z,35.74
2023-04-27T18:54:27.382Z,36.02
2023-04-27T18:56:53.951Z,36.32
2023-04-27T18:59:20.453Z,35.77
2023-04-27T19:01:47.099Z,35.99
2023-04-27T19:04:14.474Z,35.83
2023-04-27T19:06:41.172Z,35.90
2023-04-27T19:09:09.159Z,36.19
2023-04-27T19:11:35.992Z,35.90
2023-04-27T19:14:03.651Z,36.18
2023-04-27T19:16:30.332Z,36.24
2023-04-27T19:18:57.245Z,35.84
2023-04-27T19:21:23.847Z,36.13
2023-04-27T19:23:50.352Z,35.86
2023-04-27T19:26:16.842Z,36.11
2023-04-27T19:28:43.408Z,36.11
2023-04-27T19:31:10.332Z,35.96
2023-04-27T19:33:37.120Z,36.14
2023-04-27T19:36:03.909Z,36.07
2023-04-27T19:38:30.898Z,35.94
2023-04-27T19:40:57.579Z,36.19
2023-04-27T19:43:24.103Z,36.19
2023-04-27T19:45:51.179Z,36.14
2023-04-27T19:48:17.739Z,36.12
2023-04-27T19:50:44.379Z,36.44
2023-04-27T19:53:11.188Z,36.19
2023-04-27T19:55:37.891Z,36.07
2023-04-27T19:58:04.555Z,36.18
2023-04-27T20:00:31.152Z,36.33
2023-04-27T20:02:57.999Z,36.06
2023-04-27T20:05:25.100Z,36.14
2023-04-27T20:07:51.753Z,36.08
2023-04-27T20:10:18.694Z,36.04
2023-04-27T20:12:56.305Z,35.96
2023-04-27T20:15:24.193Z,36.20
2023-04-27T20:17:50.921Z,36.18
2023-04-27T20:20:18.136Z,35.97
2023-04-27T20:22:44.894Z,36.17
2023-04-27T20:25:13.917Z,35.97
2023-04-27T20:27:40.980Z,36.30
2023-04-27T20:30:08.439Z,36.14
2023-04-27T20:32:35.090Z,36.03
2023-04-27T20:35:02.545Z,36.19
2023-04-27T20:37:29.196Z,36.15
2023-04-27T20:39:55.837Z,36.19
2023-04-27T20:42:22.610Z,35.92
2023-04-27T20:44:49.256Z,36.00
2023-04-27T20:47:16.170Z,35.98
2023-04-27T20:49:42.859Z,36.17
2023-04-27T20:52:09.447Z,36.31
2023-04-27T20:54:36.259Z,35.92
2023-04-27T20:57:03.844Z,36.14
2023-04-27T20:59:30.526Z,35.97
2023-04-27T21:01:57.000Z,36.10
2023-04-27T21:04:28.113Z,35.78
2023-04-27T21:07:04.382Z,36.08
2023-04-27T21:09:31.431Z,36.10
2023-04-27T21:11:58.030Z,36.37
2023-04-27T21:14:24.533Z,35.95
2023-04-27T21:16:51.060Z,35.79
2023-04-27T21:19:17.812Z,36.01
2023-04-27T21:21:44.314Z,36.29
2023-04-27T21:24:11.060Z,35.78
2023-04-27T21:26:37.667Z,35.96
2023-04-27T21:29:05.968Z,35.78
2023-04-27T21:31:33.346Z,36.11
2023-04-27T21:34:00.040Z,36.00
2023-04-27T21:36:26.684Z,36.20
2023-04-27T21:38:53.490Z,36.13
2023-04-27T21:41:19.990Z,36.16
2023-04-27T21:43:46.704Z,36.04
2023-04-27T21:46:13.246Z,35.80
2023-04-27T21:48:39.824Z,36.28
2023-04-27T21:51:06.303Z,35.95
2023-04-27T21:53:32.815Z,36.00
2023-04-27T21:55:59.628Z,36.25
2023-04-27T21:58:26.178Z,36.29
2023-04-27T22:00:52.710Z,36.10
2023-04-27T22:03:19.331Z,36.08
2023-04-27T22:05:48.788Z,36.28
2023-04-27T22:08:17.378Z,35.98
2023-04-27T22:10:44.679Z,36.11
2023-04-27T22:13:18.764Z,36.29
2023-04-27T22:15:46.393Z,36.04
2023-04-27T22:18:14.404Z,35.95
2023-04-27T22:20:42.310Z,36.00
2023-04-27T22:23:09.514Z,35.91
2023-04-27T22:25:36.460Z,36.25
2023-04-27T22:28:02.994Z,35.99
2023-04-27T22:30:30.297Z,36.27
2023-04-27T22:32:57.631Z,36.16
2023-04-27T22:35:27.152Z,36.32
2023-04-27T22:37:55.749Z,36.08
2023-04-27T22:40:22.404Z,36.24
2023-04-27T22:42:48.840Z,36.13
2023-04-27T22:45:15.480Z,36.20
2023-04-27T22:47:44.499Z,36.55
2023-04-27T22:50:11.943Z,36.02
2023-04-27T22:52:42.098Z,36.27
2023-04-27T22:55:09.779Z,36.02
2023-04-27T22:57:36.490Z,35.97
2023-04-27T23:00:05.461Z,36.14
2023-04-27T23:02:32.249Z,35.96
2023-04-27T23:04:59.101Z,36.36
2023-04-27T23:07:25.579Z,36.11
2023-04-27T23:09:52.877Z,35.96
2023-04-27T23:12:20.714Z,36.19
2023-04-27T23:14:47.363Z,36.01
2023-04-27T23:17:15.471Z,35.86
2023-04-27T23:19:41.985Z,36.30
2023-04-27T23:22:08.502Z,36.17
2023-04-27T23:24:35.023Z,36.19
2023-04-27T23:27:01.605Z,36.12
2023-04-27T23:29:28.492Z,36.04
2023-04-27T23:31:54.962Z,36.04
2023-04-27T23:34:21.660Z,36.08
2023-04-27T23:36:48.208Z,36.24
2023-04-27T23:39:14.672Z,35.89
2023-04-27T23:41:41.242Z,35.95
2023-04-27T23:44:08.424Z,36.36
2023-04-27T23:46:35.152Z,36.37
2023-04-27T23:49:01.725Z,36.35
2023-04-27T23:51:28.228Z,35.86
2023-04-27T23:53:54.785Z,36.19
2023-04-27T23:56:23.022Z,36.22
2023-04-27T23:58:49.708Z,36.18
